M/V Yutaka — DSOU3 — position and weather

sailwx.info

Track history (hours):
 
Tides and Currents Weather Stations Pressure Air Temp Water Temp Dewpoint Dewpoint Depression Visibility Wind Speed Wind Dir Waves Ship Positions

M/V Yutaka

Last reported at 2017-Nov-16 22:31 UTC. Time now 2017-Nov-20 12:01 UTC.
Position N 34°57' E 139°25'.

Length 73 m; draft 4.9 m.

Type: Cargo ship. MMSI: 440341000.

Date/timePositionNaut miles runAvg speedWind from/ knotsBaromVisibWave heightAir tempDewpointWater temp
2017-Nov-16 22:31N 34°57' E 139°25'1 8.7
2017-Nov-16 22:21N 34°58' E 139°26'3 8.5
2017-Nov-16 22:00N 35°00' E 139°29'4 8.5
2017-Nov-16 21:30N 35°03' E 139°33'4 8.4
2017-Nov-16 21:00N 35°05' E 139°38'4 8.8
2017-Nov-16 20:30N 35°07' E 139°42'4 8.7
2017-Nov-16 20:00N 35°11' E 139°45'4 8.7
2017-Nov-16 19:30N 35°15' E 139°46'4 8.3
2017-Nov-16 19:00N 35°19' E 139°43'4 8.6
2017-Nov-16 18:31N 35°23' E 139°42'4 7.7
2017-Nov-16 18:00N 35°25' E 139°46'4 8.2
2017-Nov-16 17:30N 35°23' E 139°50'  
2017-Nov-14 09:50N 35°22' E 139°54'2 5.1
2017-Nov-14 09:29N 35°22' E 139°52'2 3.6
2017-Nov-14 08:55N 35°24' E 139°50'0 0.1
2017-Nov-14 08:22N 35°24' E 139°50'0 0.0
2017-Nov-14 07:58N 35°24' E 139°50'0 0.0
2017-Nov-14 07:13N 35°24' E 139°50'0 0.0
2017-Nov-14 06:58N 35°24' E 139°50'0 0.0
2017-Nov-14 06:22N 35°24' E 139°50'0 0.0
2017-Nov-14 05:58N 35°24' E 139°50'0 0.0
2017-Nov-14 05:25N 35°24' E 139°50'0 0.0
2017-Nov-14 04:58N 35°24' E 139°50'0 0.0
2017-Nov-14 04:28N 35°24' E 139°50'0 0.0
2017-Nov-14 03:58N 35°24' E 139°50'0 0.0
2017-Nov-14 03:28N 35°24' E 139°50'0 0.0
2017-Nov-14 02:55N 35°24' E 139°50'0 0.0
2017-Nov-14 02:28N 35°24' E 139°50'0 0.1
2017-Nov-14 01:55N 35°24' E 139°50'0 0.1
2017-Nov-14 01:13N 35°24' E 139°50'0 0.0
2017-Nov-14 00:58N 35°24' E 139°50'0 0.1
2017-Nov-14 00:19N 35°24' E 139°50'0 0.0
2017-Nov-13 23:55N 35°24' E 139°50'0 0.0
2017-Nov-13 22:37N 35°24' E 139°50'0 0.0
2017-Nov-13 22:25N 35°24' E 139°50'0 0.0
2017-Nov-13 21:55N 35°24' E 139°50'0 0.0
2017-Nov-13 01:58N 35°24' E 139°50'0 0.0
2017-Nov-13 01:28N 35°24' E 139°50'0 0.0
2017-Nov-13 00:55N 35°24' E 139°50'0 0.1
2017-Nov-13 00:25N 35°24' E 139°50'0 0.0
2017-Nov-12 23:58N 35°24' E 139°50'0 0.0
2017-Nov-12 23:22N 35°24' E 139°50'0 0.1
2017-Nov-12 22:58N 35°24' E 139°50'0 0.1
2017-Nov-12 22:16N 35°24' E 139°50'0 0.2
2017-Nov-12 21:58N 35°24' E 139°50'0 0.1
2017-Nov-12 21:28N 35°24' E 139°50'0 0.0
2017-Nov-12 20:55N 35°24' E 139°50'0 0.1
2017-Nov-12 20:28N 35°24' E 139°50'0 0.1
2017-Nov-12 19:58N 35°24' E 139°50'0 0.1
2017-Nov-12 19:28N 35°24' E 139°50'0 0.0
2017-Nov-12 18:58N 35°24' E 139°50'0 0.1
2017-Nov-12 18:25N 35°24' E 139°50'0 0.0
2017-Nov-12 17:58N 35°24' E 139°50'0 0.0
2017-Nov-12 17:28N 35°24' E 139°50'0 0.0
2017-Nov-12 16:58N 35°24' E 139°50'0 0.1
2017-Nov-12 16:28N 35°24' E 139°50'0 0.0
2017-Nov-12 15:49N 35°24' E 139°50'0 0.0
2017-Nov-12 15:25N 35°24' E 139°50'0 0.0
2017-Nov-12 14:55N 35°24' E 139°50'0 0.0
2017-Nov-12 12:07N 35°24' E 139°50'0 0.0
2017-Nov-12 11:46N 35°24' E 139°50'0 0.0
2017-Nov-12 11:28N 35°24' E 139°50'0 0.0
2017-Nov-12 10:43N 35°24' E 139°50'0 0.0
2017-Nov-12 10:28N 35°24' E 139°50'0 0.0
2017-Nov-12 09:55N 35°24' E 139°50'0 0.0
2017-Nov-12 09:25N 35°24' E 139°50'0 0.0
2017-Nov-12 08:52N 35°24' E 139°50'0 0.0
2017-Nov-12 08:25N 35°24' E 139°50'0 0.0
2017-Nov-12 07:49N 35°24' E 139°50'0 0.0
2017-Nov-12 07:28N 35°24' E 139°50'0 0.0
2017-Nov-12 06:55N 35°24' E 139°50'0 0.0
2017-Nov-12 06:25N 35°24' E 139°50'0 0.0
2017-Nov-12 05:49N 35°24' E 139°50'0 0.0
2017-Nov-12 05:25N 35°24' E 139°50'0 0.0
2017-Nov-12 04:55N 35°24' E 139°50'0 0.0
2017-Nov-12 04:25N 35°24' E 139°50'0 0.0
2017-Nov-12 03:58N 35°24' E 139°50'0 0.0
2017-Nov-12 03:28N 35°24' E 139°50'0 0.0
2017-Nov-12 02:58N 35°24' E 139°50'0 0.0
2017-Nov-12 02:28N 35°24' E 139°50'0 0.0
2017-Nov-12 01:55N 35°24' E 139°50'0 0.0
2017-Nov-12 01:25N 35°24' E 139°50'0 0.1
2017-Nov-12 00:58N 35°24' E 139°50'0 0.1
2017-Nov-12 00:28N 35°24' E 139°50'0 0.0
2017-Nov-11 23:55N 35°24' E 139°50'0 0.1
2017-Nov-11 23:28N 35°24' E 139°50'0 0.0
2017-Nov-11 22:58N 35°24' E 139°50'0 0.0
2017-Nov-11 22:13N 35°24' E 139°50'0 0.0
2017-Nov-11 21:31N 35°24' E 139°50'0 0.0
2017-Nov-11 21:28N 35°24' E 139°50'0 0.0
2017-Nov-11 20:52N 35°24' E 139°50'0 0.0
2017-Nov-11 20:28N 35°24' E 139°50'0 0.0
2017-Nov-11 19:40N 35°24' E 139°50'0 0.0
2017-Nov-11 19:28N 35°24' E 139°50'0 0.0
2017-Nov-11 18:46N 35°24' E 139°50'0 0.0
2017-Nov-11 18:16N 35°24' E 139°50'0 0.0
2017-Nov-11 17:58N 35°24' E 139°50'0 0.0
2017-Nov-11 17:22N 35°24' E 139°50'0 0.0
2017-Nov-11 16:58N 35°24' E 139°50'0 0.0
2017-Nov-11 16:25N 35°24' E 139°50'0 0.0
2017-Nov-11 15:49N 35°24' E 139°50'0 0.0
2017-Nov-11 15:28N 35°24' E 139°50'0 0.0
2017-Nov-11 14:52N 35°24' E 139°50'0 0.0
2017-Nov-11 14:28N 35°24' E 139°50'0 0.0
2017-Nov-11 13:55N 35°24' E 139°50'0 0.0
2017-Nov-11 13:28N 35°24' E 139°50'0 0.0
2017-Nov-11 12:55N 35°24' E 139°50'0 0.0
2017-Nov-11 12:28N 35°24' E 139°50'0 0.0
2017-Nov-11 11:58N 35°24' E 139°50'0 0.0
2017-Nov-11 11:28N 35°24' E 139°50'0 0.0
2017-Nov-11 10:52N 35°24' E 139°50'0 0.1
2017-Nov-11 10:28N 35°24' E 139°50'0 0.1
2017-Nov-11 09:52N 35°24' E 139°50'0 0.0
2017-Nov-11 09:25N 35°24' E 139°50'0 0.0
2017-Nov-11 08:55N 35°24' E 139°50'0 0.0
2017-Nov-11 08:25N 35°24' E 139°50'0 0.1
2017-Nov-11 07:58N 35°24' E 139°50'0 0.1
2017-Nov-11 07:13N 35°24' E 139°50'0 0.0
2017-Nov-11 06:43N 35°24' E 139°50'0 0.0
2017-Nov-11 06:26N 35°24' E 139°50'0 0.0
2017-Nov-11 06:00N 35°24' E 139°50'0 0.0
2017-Nov-11 05:28N 35°24' E 139°50'0 0.0
2017-Nov-11 05:00N 35°24' E 139°50'0 0.0
2017-Nov-11 04:14N 35°24' E 139°50'0 0.0
2017-Nov-11 03:51N 35°24' E 139°50'0 0.0
2017-Nov-11 03:20N 35°24' E 139°50'0 0.0
2017-Nov-11 02:59N 35°24' E 139°50'0 0.1
2017-Nov-11 02:30N 35°24' E 139°50'0 0.0
2017-Nov-11 01:59N 35°24' E 139°50'0 0.1
2017-Nov-11 01:29N 35°24' E 139°50'0 0.2
2017-Nov-11 01:01N 35°24' E 139°50'3 6.9
2017-Nov-11 00:30N 35°23' E 139°46'5 9.4
2017-Nov-11 00:00N 35°18' E 139°45'5 9.1
2017-Nov-10 23:30N 35°14' E 139°47'5 9.3
2017-Nov-10 23:00N 35°09' E 139°46'5 9.2
2017-Nov-10 22:30N 35°05' E 139°44'5 9.2
2017-Nov-10 22:00N 35°02' E 139°40'5 9.8
2017-Nov-10 21:30N 34°59' E 139°35'5 9.7
2017-Nov-10 21:00N 34°56' E 139°30'  
Track history (hours):
 
Tides and Currents Weather Stations Pressure Air Temp Water Temp Dewpoint Dewpoint Depression Visibility Wind Speed Wind Dir Waves Ship Positions

M/V Yutaka

Last reported at 2017-Nov-16 22:31 UTC. Time now 2017-Nov-20 12:01 UTC.
Position N 34°57' E 139°25'.

Length 73 m; draft 4.9 m.

Type: Cargo ship. MMSI: 440341000.

Date/timePositionNaut miles runAvg speedWind from/ knotsBaromVisibWave heightAir tempDewpointWater temp
2017-Nov-16 22:31N 34°57' E 139°25'1 8.7
2017-Nov-16 22:21N 34°58' E 139°26'3 8.5
2017-Nov-16 22:00N 35°00' E 139°29'4 8.5
2017-Nov-16 21:30N 35°03' E 139°33'4 8.4
2017-Nov-16 21:00N 35°05' E 139°38'4 8.8
2017-Nov-16 20:30N 35°07' E 139°42'4 8.7
2017-Nov-16 20:00N 35°11' E 139°45'4 8.7
2017-Nov-16 19:30N 35°15' E 139°46'4 8.3
2017-Nov-16 19:00N 35°19' E 139°43'4 8.6
2017-Nov-16 18:31N 35°23' E 139°42'4 7.7
2017-Nov-16 18:00N 35°25' E 139°46'4 8.2
2017-Nov-16 17:30N 35°23' E 139°50'  
2017-Nov-14 09:50N 35°22' E 139°54'2 5.1
2017-Nov-14 09:29N 35°22' E 139°52'2 3.6
2017-Nov-14 08:55N 35°24' E 139°50'0 0.1
2017-Nov-14 08:22N 35°24' E 139°50'0 0.0
2017-Nov-14 07:58N 35°24' E 139°50'0 0.0
2017-Nov-14 07:13N 35°24' E 139°50'0 0.0
2017-Nov-14 06:58N 35°24' E 139°50'0 0.0
2017-Nov-14 06:22N 35°24' E 139°50'0 0.0
2017-Nov-14 05:58N 35°24' E 139°50'0 0.0
2017-Nov-14 05:25N 35°24' E 139°50'0 0.0
2017-Nov-14 04:58N 35°24' E 139°50'0 0.0
2017-Nov-14 04:28N 35°24' E 139°50'0 0.0
2017-Nov-14 03:58N 35°24' E 139°50'0 0.0
2017-Nov-14 03:28N 35°24' E 139°50'0 0.0
2017-Nov-14 02:55N 35°24' E 139°50'0 0.0
2017-Nov-14 02:28N 35°24' E 139°50'0 0.1
2017-Nov-14 01:55N 35°24' E 139°50'0 0.1
2017-Nov-14 01:13N 35°24' E 139°50'0 0.0
2017-Nov-14 00:58N 35°24' E 139°50'0 0.1
2017-Nov-14 00:19N 35°24' E 139°50'0 0.0
2017-Nov-13 23:55N 35°24' E 139°50'0 0.0
2017-Nov-13 22:37N 35°24' E 139°50'0 0.0
2017-Nov-13 22:25N 35°24' E 139°50'0 0.0
2017-Nov-13 21:55N 35°24' E 139°50'0 0.0
2017-Nov-13 01:58N 35°24' E 139°50'0 0.0
2017-Nov-13 01:28N 35°24' E 139°50'0 0.0
2017-Nov-13 00:55N 35°24' E 139°50'0 0.1
2017-Nov-13 00:25N 35°24' E 139°50'0 0.0
2017-Nov-12 23:58N 35°24' E 139°50'0 0.0
2017-Nov-12 23:22N 35°24' E 139°50'0 0.1
2017-Nov-12 22:58N 35°24' E 139°50'0 0.1
2017-Nov-12 22:16N 35°24' E 139°50'0 0.2
2017-Nov-12 21:58N 35°24' E 139°50'0 0.1
2017-Nov-12 21:28N 35°24' E 139°50'0 0.0
2017-Nov-12 20:55N 35°24' E 139°50'0 0.1
2017-Nov-12 20:28N 35°24' E 139°50'0 0.1
2017-Nov-12 19:58N 35°24' E 139°50'0 0.1
2017-Nov-12 19:28N 35°24' E 139°50'0 0.0
2017-Nov-12 18:58N 35°24' E 139°50'0 0.1
2017-Nov-12 18:25N 35°24' E 139°50'0 0.0
2017-Nov-12 17:58N 35°24' E 139°50'0 0.0
2017-Nov-12 17:28N 35°24' E 139°50'0 0.0
2017-Nov-12 16:58N 35°24' E 139°50'0 0.1
2017-Nov-12 16:28N 35°24' E 139°50'0 0.0
2017-Nov-12 15:49N 35°24' E 139°50'0 0.0
2017-Nov-12 15:25N 35°24' E 139°50'0 0.0
2017-Nov-12 14:55N 35°24' E 139°50'0 0.0
2017-Nov-12 12:07N 35°24' E 139°50'0 0.0
2017-Nov-12 11:46N 35°24' E 139°50'0 0.0
2017-Nov-12 11:28N 35°24' E 139°50'0 0.0
2017-Nov-12 10:43N 35°24' E 139°50'0 0.0
2017-Nov-12 10:28N 35°24' E 139°50'0 0.0
2017-Nov-12 09:55N 35°24' E 139°50'0 0.0
2017-Nov-12 09:25N 35°24' E 139°50'0 0.0
2017-Nov-12 08:52N 35°24' E 139°50'0 0.0
2017-Nov-12 08:25N 35°24' E 139°50'0 0.0
2017-Nov-12 07:49N 35°24' E 139°50'0 0.0
2017-Nov-12 07:28N 35°24' E 139°50'0 0.0
2017-Nov-12 06:55N 35°24' E 139°50'0 0.0
2017-Nov-12 06:25N 35°24' E 139°50'0 0.0
2017-Nov-12 05:49N 35°24' E 139°50'0 0.0
2017-Nov-12 05:25N 35°24' E 139°50'0 0.0
2017-Nov-12 04:55N 35°24' E 139°50'0 0.0
2017-Nov-12 04:25N 35°24' E 139°50'0 0.0
2017-Nov-12 03:58N 35°24' E 139°50'0 0.0
2017-Nov-12 03:28N 35°24' E 139°50'0 0.0
2017-Nov-12 02:58N 35°24' E 139°50'0 0.0
2017-Nov-12 02:28N 35°24' E 139°50'0 0.0
2017-Nov-12 01:55N 35°24' E 139°50'0 0.0
2017-Nov-12 01:25N 35°24' E 139°50'0 0.1
2017-Nov-12 00:58N 35°24' E 139°50'0 0.1
2017-Nov-12 00:28N 35°24' E 139°50'0 0.0
2017-Nov-11 23:55N 35°24' E 139°50'0 0.1
2017-Nov-11 23:28N 35°24' E 139°50'0 0.0
2017-Nov-11 22:58N 35°24' E 139°50'0 0.0
2017-Nov-11 22:13N 35°24' E 139°50'0 0.0
2017-Nov-11 21:31N 35°24' E 139°50'0 0.0
2017-Nov-11 21:28N 35°24' E 139°50'0 0.0
2017-Nov-11 20:52N 35°24' E 139°50'0 0.0
2017-Nov-11 20:28N 35°24' E 139°50'0 0.0
2017-Nov-11 19:40N 35°24' E 139°50'0 0.0
2017-Nov-11 19:28N 35°24' E 139°50'0 0.0
2017-Nov-11 18:46N 35°24' E 139°50'0 0.0
2017-Nov-11 18:16N 35°24' E 139°50'0 0.0
2017-Nov-11 17:58N 35°24' E 139°50'0 0.0
2017-Nov-11 17:22N 35°24' E 139°50'0 0.0
2017-Nov-11 16:58N 35°24' E 139°50'0 0.0
2017-Nov-11 16:25N 35°24' E 139°50'0 0.0
2017-Nov-11 15:49N 35°24' E 139°50'0 0.0
2017-Nov-11 15:28N 35°24' E 139°50'0 0.0
2017-Nov-11 14:52N 35°24' E 139°50'0 0.0
2017-Nov-11 14:28N 35°24' E 139°50'0 0.0
2017-Nov-11 13:55N 35°24' E 139°50'0 0.0
2017-Nov-11 13:28N 35°24' E 139°50'0 0.0
2017-Nov-11 12:55N 35°24' E 139°50'0 0.0
2017-Nov-11 12:28N 35°24' E 139°50'0 0.0
2017-Nov-11 11:58N 35°24' E 139°50'0 0.0
2017-Nov-11 11:28N 35°24' E 139°50'0 0.0
2017-Nov-11 10:52N 35°24' E 139°50'0 0.1
2017-Nov-11 10:28N 35°24' E 139°50'0 0.1
2017-Nov-11 09:52N 35°24' E 139°50'0 0.0
2017-Nov-11 09:25N 35°24' E 139°50'0 0.0
2017-Nov-11 08:55N 35°24' E 139°50'0 0.0
2017-Nov-11 08:25N 35°24' E 139°50'0 0.1
2017-Nov-11 07:58N 35°24' E 139°50'0 0.1
2017-Nov-11 07:13N 35°24' E 139°50'0 0.0
2017-Nov-11 06:43N 35°24' E 139°50'0 0.0
2017-Nov-11 06:26N 35°24' E 139°50'0 0.0
2017-Nov-11 06:00N 35°24' E 139°50'0 0.0
2017-Nov-11 05:28N 35°24' E 139°50'0 0.0
2017-Nov-11 05:00N 35°24' E 139°50'0 0.0
2017-Nov-11 04:14N 35°24' E 139°50'0 0.0
2017-Nov-11 03:51N 35°24' E 139°50'0 0.0
2017-Nov-11 03:20N 35°24' E 139°50'0 0.0
2017-Nov-11 02:59N 35°24' E 139°50'0 0.1
2017-Nov-11 02:30N 35°24' E 139°50'0 0.0
2017-Nov-11 01:59N 35°24' E 139°50'0 0.1
2017-Nov-11 01:29N 35°24' E 139°50'0 0.2
2017-Nov-11 01:01N 35°24' E 139°50'3 6.9
2017-Nov-11 00:30N 35°23' E 139°46'5 9.4
2017-Nov-11 00:00N 35°18' E 139°45'5 9.1
2017-Nov-10 23:30N 35°14' E 139°47'5 9.3
2017-Nov-10 23:00N 35°09' E 139°46'5 9.2
2017-Nov-10 22:30N 35°05' E 139°44'5 9.2
2017-Nov-10 22:00N 35°02' E 139°40'5 9.8
2017-Nov-10 21:30N 34°59' E 139°35'5 9.7
2017-Nov-10 21:00N 34°56' E 139°30'  

Dump ship's entire track history